createdAt,value
2018-11-22T12:17:14.128Z,4.06
2018-11-22T12:22:18.666Z,4.11
2018-11-22T12:27:23.127Z,4.23
2018-11-22T12:32:32.509Z,4.09
2018-11-22T12:37:43.334Z,4.11
2018-11-22T12:42:44.244Z,4.12
2018-11-22T12:47:48.845Z,4.19
2018-11-22T12:52:53.842Z,4.16
2018-11-22T13:03:14.959Z,4.09
2018-11-22T13:08:19.799Z,4.04
2018-11-22T13:13:24.507Z,4.00
2018-11-22T13:18:29.813Z,4.03
2018-11-22T13:23:39.630Z,3.96
2018-11-22T13:28:44.086Z,3.91
2018-11-22T13:33:48.576Z,3.93
2018-11-22T13:38:53.243Z,3.88
2018-11-22T13:43:57.873Z,3.89
2018-11-22T13:49:02.574Z,3.88
2018-11-22T13:54:12.336Z,3.90
2018-11-22T13:59:17.387Z,3.94
2018-11-22T14:04:22.169Z,3.98
2018-11-22T14:09:26.474Z,3.96
2018-11-22T14:14:31.759Z,4.04
2018-11-22T14:19:37.067Z,4.38
2018-11-22T14:24:41.728Z,4.58
2018-11-22T14:29:46.985Z,4.45
2018-11-22T14:34:51.783Z,4.30
2018-11-22T14:39:56.374Z,4.21
2018-11-22T14:45:00.905Z,4.12
2018-11-22T14:50:09.847Z,4.06
2018-11-22T14:55:14.567Z,3.98
2018-11-22T15:00:19.204Z,3.98
2018-11-22T15:05:23.830Z,3.97
2018-11-22T15:10:28.883Z,3.96
2018-11-22T15:15:33.609Z,3.99
2018-11-22T15:20:38.201Z,3.94
2018-11-22T15:25:43.419Z,3.92
2018-11-22T15:30:48.026Z,3.92
2018-11-22T15:35:53.289Z,3.92
2018-11-22T15:40:58.041Z,3.92
2018-11-22T15:46:03.007Z,3.90
2018-11-22T15:51:07.425Z,3.89
2018-11-22T15:56:11.779Z,3.88
2018-11-22T16:01:16.292Z,3.89
2018-11-22T16:06:21.367Z,3.85
2018-11-22T16:11:25.304Z,3.83
2018-11-22T16:16:29.815Z,3.83
2018-11-22T16:21:35.643Z,3.85
2018-11-22T16:26:39.988Z,3.85
2018-11-22T16:31:44.366Z,3.86
2018-11-22T16:36:51.217Z,3.89
2018-11-22T16:41:56.639Z,3.89
2018-11-22T16:47:00.952Z,3.89
2018-11-22T16:52:05.390Z,3.89
2018-11-22T16:57:14.736Z,3.87
2018-11-22T17:02:19.106Z,3.85
2018-11-22T17:07:23.655Z,3.85
2018-11-22T17:12:28.518Z,3.86
2018-11-22T17:17:33.028Z,3.84
2018-11-22T17:22:37.702Z,3.86
2018-11-22T17:27:42.975Z,3.84
2018-11-22T17:32:47.654Z,3.88
2018-11-22T17:37:52.653Z,3.87
2018-11-22T17:42:57.904Z,3.87
2018-11-22T17:48:02.570Z,3.84
2018-11-22T17:53:07.529Z,3.84
2018-11-22T17:58:12.180Z,3.83
2018-11-22T18:03:16.482Z,3.84
2018-11-22T18:08:20.961Z,3.82
2018-11-22T18:13:27.685Z,3.84
2018-11-22T18:23:46.992Z,3.87
2018-11-22T18:28:51.597Z,3.86
2018-11-22T18:33:56.444Z,3.81
2018-11-22T18:39:00.955Z,3.80
2018-11-22T18:44:05.523Z,3.78
2018-11-22T18:49:09.851Z,3.79
2018-11-22T18:54:15.485Z,3.83
2018-11-22T18:59:19.847Z,3.80
2018-11-22T19:04:25.342Z,3.83
2018-11-22T19:09:31.377Z,3.81
2018-11-22T19:14:37.372Z,3.87
2018-11-22T19:19:41.852Z,3.85
2018-11-22T19:24:46.219Z,3.87
2018-11-22T19:29:50.869Z,3.86
2018-11-22T19:34:55.839Z,3.88
2018-11-22T19:40:01.409Z,3.86
2018-11-22T19:45:08.933Z,3.87
2018-11-22T19:50:17.372Z,3.88
2018-11-22T19:55:26.569Z,3.83
2018-11-22T20:00:32.144Z,3.83
2018-11-22T20:05:37.878Z,3.85
2018-11-22T20:10:43.468Z,3.87
2018-11-22T20:15:47.914Z,3.88
2018-11-22T20:20:55.605Z,3.88
2018-11-22T20:26:00.076Z,3.89
2018-11-22T20:31:06.487Z,3.91
2018-11-22T20:36:11.498Z,3.89
2018-11-22T20:41:16.374Z,3.87
2018-11-22T20:46:20.764Z,3.88
2018-11-22T20:51:26.376Z,3.88
2018-11-22T20:56:30.777Z,3.86
2018-11-22T21:01:35.034Z,3.88
2018-11-22T21:06:39.299Z,3.88
2018-11-22T21:11:43.793Z,3.87
2018-11-22T21:16:48.429Z,3.84
2018-11-22T21:21:52.707Z,3.86
2018-11-22T21:26:57.085Z,3.84
2018-11-22T21:32:01.458Z,3.87
2018-11-22T21:37:05.991Z,3.81
2018-11-22T21:42:10.562Z,3.81
2018-11-22T21:47:14.934Z,3.82
2018-11-22T21:52:19.559Z,3.79
2018-11-22T21:57:25.468Z,3.77
2018-11-22T22:02:29.907Z,3.75
2018-11-22T22:07:34.486Z,3.75
2018-11-22T22:12:39.315Z,3.72
2018-11-22T22:17:44.550Z,3.72
2018-11-22T22:22:49.272Z,3.72
2018-11-22T22:27:54.965Z,3.70
2018-11-22T22:33:00.909Z,3.69
2018-11-22T22:38:06.017Z,3.73
2018-11-22T22:43:10.711Z,3.72
2018-11-22T22:48:15.259Z,3.73
2018-11-22T22:53:19.600Z,3.72
2018-11-22T22:58:24.156Z,3.72
2018-11-22T23:03:29.244Z,3.70
2018-11-22T23:08:33.641Z,3.69
2018-11-22T23:13:38.458Z,3.66
2018-11-22T23:18:42.789Z,3.67
2018-11-22T23:23:47.082Z,3.68
2018-11-22T23:28:52.424Z,3.68
2018-11-22T23:33:57.764Z,3.69
2018-11-22T23:39:02.115Z,3.70
2018-11-22T23:44:06.732Z,3.74
2018-11-22T23:49:11.058Z,3.76
2018-11-22T23:54:15.303Z,3.76
2018-11-22T23:59:19.645Z,3.75
